Time,TemperatureF,DewpointF,PressureIn,WindDirection,WindDirectionDegrees,WindSpeedMPH,WindSpeedGustMPH,Humidity,HourlyPrecipIn,Conditions,Clouds,dailyrainin,SoftwareType,DateUTC
2013-06-01 00:00:00,74.6,71.1,30.09,ENE,61,3.0,7.0,89,0.00,,,0.00,Weather View 32 v70,2013-06-01 04:00:00,
2013-06-01 00:10:00,74.5,71.4,30.09,ENE,73,2.0,7.0,90,0.00,,,0.00,Weather View 32 v70,2013-06-01 04:10:00,
2013-06-01 00:20:00,74.4,71.3,30.09,ENE,72,1.0,5.0,90,0.00,,,0.00,Weather View 32 v70,2013-06-01 04:20:00,
2013-06-01 00:30:00,74.1,71.0,30.09,NE,55,1.0,5.0,90,0.00,,,0.00,Weather View 32 v70,2013-06-01 04:30:00,
2013-06-01 00:40:00,73.9,71.1,30.08,NE,50,0.0,5.0,91,0.00,,,0.00,Weather View 32 v70,2013-06-01 04:40:00,
2013-06-01 00:50:00,73.7,70.9,30.08,NE,46,2.0,5.0,91,0.00,,,0.00,Weather View 32 v70,2013-06-01 04:50:00,
2013-06-01 01:00:00,73.4,70.6,30.08,NE,41,2.0,5.0,91,0.00,,,0.00,Weather View 32 v70,2013-06-01 05:00:00,
2013-06-01 01:10:00,73.1,70.6,30.08,NE,40,0.0,4.0,92,0.00,,,0.00,Weather View 32 v70,2013-06-01 05:10:00,
2013-06-01 01:20:00,73.0,70.5,30.07,NE,40,1.0,4.0,92,0.00,,,0.00,Weather View 32 v70,2013-06-01 05:20:00,
2013-06-01 01:30:00,73.0,70.8,30.07,NE,42,2.0,3.0,93,0.00,,,0.00,Weather View 32 v70,2013-06-01 05:30:00,
2013-06-01 01:40:00,73.0,70.8,30.07,ENE,65,1.0,3.0,93,0.00,,,0.00,Weather View 32 v70,2013-06-01 05:40:00,
2013-06-01 01:50:00,72.9,70.7,30.06,NE,36,2.0,3.0,93,0.00,,,0.00,Weather View 32 v70,2013-06-01 05:50:00,
2013-06-01 01:51:00,72.9,70.7,30.06,NE,36,2.0,3.0,93,0.00,,,0.00,Weather View 32 v70,2013-06-01 05:51:00,
2013-06-01 02:00:00,72.9,70.7,30.06,NNE,32,0.0,3.0,93,0.00,,,0.00,Weather View 32 v70,2013-06-01 06:00:00,
2013-06-01 02:10:00,72.0,68.9,30.06,NNE,32,0.0,3.0,90,0.00,,,0.00,Weather View 32 v70,2013-06-01 06:10:00,
2013-06-01 02:20:00,72.4,70.6,30.06,NNE,32,1.0,3.0,94,0.00,,,0.00,Weather View 32 v70,2013-06-01 06:20:00,
2013-06-01 02:30:00,72.7,70.5,30.05,NE,44,0.0,3.0,93,0.00,,,0.00,Weather View 32 v70,2013-06-01 06:30:00,
2013-06-01 02:40:00,72.7,70.5,30.05,NE,42,0.0,3.0,93,0.00,,,0.00,Weather View 32 v70,2013-06-01 06:40:00,
2013-06-01 02:50:00,72.6,70.4,30.04,NE,41,3.0,3.0,93,0.00,,,0.00,Weather View 32 v70,2013-06-01 06:50:00,
2013-06-01 02:51:00,72.6,70.4,30.04,NE,41,3.0,3.0,93,0.00,,,0.00,Weather View 32 v70,2013-06-01 06:51:00,
2013-06-01 03:00:00,72.6,70.4,30.04,NE,34,1.0,3.0,93,0.00,,,0.00,Weather View 32 v70,2013-06-01 07:00:00,
2013-06-01 03:10:00,72.4,70.3,30.04,NE,42,0.0,3.0,93,0.00,,,0.00,Weather View 32 v70,2013-06-01 07:10:00,
2013-06-01 03:20:00,70.4,67.6,30.04,North,360,0.0,3.0,91,0.00,,,0.00,Weather View 32 v70,2013-06-01 07:20:00,
2013-06-01 03:30:00,69.3,66.9,30.03,North,360,0.0,3.0,92,0.00,,,0.00,Weather View 32 v70,2013-06-01 07:30:00,
2013-06-01 03:40:00,68.7,66.6,30.03,North,355,0.0,3.0,93,0.00,,,0.00,Weather View 32 v70,2013-06-01 07:40:00,
2013-06-01 03:50:00,68.5,66.4,30.03,North,355,0.0,3.0,93,0.00,,,0.00,Weather View 32 v70,2013-06-01 07:50:00,
2013-06-01 03:52:00,68.5,66.4,30.03,North,355,0.0,3.0,93,0.00,,,0.00,Weather View 32 v70,2013-06-01 07:52:00,
2013-06-01 04:00:00,68.1,66.0,30.03,North,355,0.0,3.0,93,0.00,,,0.00,Weather View 32 v70,2013-06-01 08:00:00,
2013-06-01 04:10:00,68.6,67.1,30.02,North,355,0.0,2.0,95,0.00,,,0.00,Weather View 32 v70,2013-06-01 08:10:00,
2013-06-01 04:20:00,71.0,69.8,30.02,NE,44,2.0,2.0,96,0.00,,,0.00,Weather View 32 v70,2013-06-01 08:20:00,
2013-06-01 04:30:00,70.6,68.5,30.03,NE,40,1.0,2.0,93,0.00,,,0.00,Weather View 32 v70,2013-06-01 08:30:00,
2013-06-01 04:40:00,67.9,65.5,30.03,NE,40,0.0,2.0,92,0.00,,,0.00,Weather View 32 v70,2013-06-01 08:40:00,
2013-06-01 04:50:00,67.3,65.2,30.03,NE,39,0.0,2.0,93,0.00,,,0.00,Weather View 32 v70,2013-06-01 08:50:00,
2013-06-01 05:00:00,66.8,64.7,30.03,NE,39,0.0,2.0,93,0.00,,,0.00,Weather View 32 v70,2013-06-01 09:00:00,
2013-06-01 05:10:00,66.7,64.6,30.04,NE,37,0.0,2.0,93,0.00,,,0.00,Weather View 32 v70,2013-06-01 09:10:00,
2013-06-01 05:20:00,66.9,65.1,30.04,NE,37,0.0,2.0,94,0.00,,,0.00,Weather View 32 v70,2013-06-01 09:20:00,
2013-06-01 05:30:00,66.4,64.3,30.04,WNW,285,0.0,2.0,93,0.00,,,0.00,Weather View 32 v70,2013-06-01 09:30:00,
2013-06-01 05:40:00,66.2,64.4,30.04,WNW,285,0.0,2.0,94,0.00,,,0.00,Weather View 32 v70,2013-06-01 09:40:00,
2013-06-01 05:50:00,65.9,64.1,30.05,WNW,285,0.0,2.0,94,0.00,,,0.00,Weather View 32 v70,2013-06-01 09:50:00,
2013-06-01 05:53:00,65.9,64.1,30.05,WNW,285,0.0,2.0,94,0.00,,,0.00,Weather View 32 v70,2013-06-01 09:53:00,
2013-06-01 06:00:00,65.8,64.0,30.05,WNW,285,0.0,2.0,94,0.00,,,0.00,Weather View 32 v70,2013-06-01 10:00:00,
2013-06-01 06:10:00,66.0,64.2,30.05,WNW,285,1.0,3.0,94,0.00,,,0.00,Weather View 32 v70,2013-06-01 10:10:00,
2013-06-01 06:20:00,65.9,64.1,30.06,WNW,285,1.0,3.0,94,0.00,,,0.00,Weather View 32 v70,2013-06-01 10:20:00,
2013-06-01 06:30:00,65.9,64.1,30.05,WNW,285,0.0,3.0,94,0.00,,,0.00,Weather View 32 v70,2013-06-01 10:30:00,
2013-06-01 06:40:00,65.9,64.1,30.06,WNW,285,0.0,3.0,94,0.00,,,0.00,Weather View 32 v70,2013-06-01 10:40:00,
2013-06-01 06:50:00,66.0,64.2,30.06,WNW,285,1.0,3.0,94,0.00,,,0.00,Weather View 32 v70,2013-06-01 10:50:00,
2013-06-01 07:00:00,66.1,64.6,30.06,WNW,285,0.0,3.0,95,0.00,,,0.00,Weather View 32 v70,2013-06-01 11:00:00,
2013-06-01 07:10:00,66.6,64.8,30.06,WNW,285,0.0,2.0,94,0.00,,,0.00,Weather View 32 v70,2013-06-01 11:10:00,
2013-06-01 07:20:00,67.2,65.7,30.07,NNW,347,0.0,2.0,95,0.00,,,0.00,Weather View 32 v70,2013-06-01 11:20:00,
2013-06-01 07:30:00,69.0,67.8,30.07,North,5,2.0,3.0,96,0.00,,,0.00,Weather View 32 v70,2013-06-01 11:30:00,
2013-06-01 07:40:00,71.9,70.7,30.07,NE,36,1.0,3.0,96,0.00,,,0.00,Weather View 32 v70,2013-06-01 11:40:00,
2013-06-01 07:50:00,72.9,71.4,30.07,NE,49,3.0,5.0,95,0.00,,,0.00,Weather View 32 v70,2013-06-01 11:50:00,
2013-06-01 07:54:00,72.9,71.4,30.07,NE,49,3.0,5.0,95,0.00,,,0.00,Weather View 32 v70,2013-06-01 11:54:00,
2013-06-01 08:00:00,73.6,71.8,30.07,NE,56,2.0,6.0,94,0.00,,,0.00,Weather View 32 v70,2013-06-01 12:00:00,
2013-06-01 08:10:00,74.7,72.2,30.07,ENE,57,5.0,6.0,92,0.00,,,0.00,Weather View 32 v70,2013-06-01 12:10:00,
2013-06-01 08:20:00,75.6,72.4,30.08,NE,55,4.0,7.0,90,0.00,,,0.00,Weather View 32 v70,2013-06-01 12:20:00,
2013-06-01 08:30:00,76.1,72.6,30.07,ENE,60,5.0,8.0,89,0.00,,,0.00,Weather View 32 v70,2013-06-01 12:30:00,
2013-06-01 08:40:00,76.9,72.7,30.07,East,88,5.0,8.0,87,0.00,,,0.00,Weather View 32 v70,2013-06-01 12:40:00,
2013-06-01 08:50:00,77.6,72.7,30.07,East,98,6.0,13.0,85,0.00,,,0.00,Weather View 32 v70,2013-06-01 12:50:00,
2013-06-01 08:55:00,77.6,72.7,30.07,East,98,6.0,13.0,85,0.00,,,0.00,Weather View 32 v70,2013-06-01 12:55:00,
2013-06-01 09:00:00,78.3,73.0,30.07,East,92,5.0,13.0,84,0.00,,,0.00,Weather View 32 v70,2013-06-01 13:00:00,
2013-06-01 09:10:00,78.5,72.9,30.08,East,84,7.0,13.0,83,0.00,,,0.00,Weather View 32 v70,2013-06-01 13:10:00,
2013-06-01 09:20:00,78.8,73.2,30.08,East,84,5.0,13.0,83,0.00,,,0.00,Weather View 32 v70,2013-06-01 13:20:00,
2013-06-01 09:30:00,79.0,72.6,30.08,ESE,118,4.0,13.0,81,0.00,,,0.00,Weather View 32 v70,2013-06-01 13:30:00,
2013-06-01 09:40:00,79.7,72.6,30.07,ENE,71,7.0,13.0,79,0.00,,,0.00,Weather View 32 v70,2013-06-01 13:40:00,
2013-06-01 09:50:00,79.9,72.4,30.07,East,84,5.0,13.0,78,0.00,,,0.00,Weather View 32 v70,2013-06-01 13:50:00,
2013-06-01 09:55:00,79.9,72.4,30.07,East,84,5.0,13.0,78,0.00,,,0.00,Weather View 32 v70,2013-06-01 13:55:00,
2013-06-01 10:10:00,80.3,72.4,30.07,East,88,2.0,16.0,77,0.00,,,0.00,Weather View 32 v70,2013-06-01 14:10:00,
2013-06-01 10:20:00,80.1,72.2,30.07,ENE,76,3.0,16.0,77,0.00,,,0.00,Weather View 32 v70,2013-06-01 14:20:00,
2013-06-01 10:30:00,80.4,72.5,30.07,ENE,75,5.0,16.0,77,0.00,,,0.00,Weather View 32 v70,2013-06-01 14:30:00,
2013-06-01 10:40:00,80.0,72.5,30.07,ENE,77,2.0,16.0,78,0.00,,,0.00,Weather View 32 v70,2013-06-01 14:40:00,
2013-06-01 10:50:00,80.1,72.6,30.07,East,93,6.0,16.0,78,0.00,,,0.00,Weather View 32 v70,2013-06-01 14:50:00,
2013-06-01 10:56:00,80.1,72.6,30.07,East,93,6.0,16.0,78,0.00,,,0.00,Weather View 32 v70,2013-06-01 14:56:00,
2013-06-01 11:00:00,80.5,72.2,30.06,ESE,119,2.0,16.0,76,0.00,,,0.00,Weather View 32 v70,2013-06-01 15:00:00,
2013-06-01 11:10:00,80.3,72.4,30.06,ENE,63,7.0,12.0,77,0.00,,,0.00,Weather View 32 v70,2013-06-01 15:10:00,
2013-06-01 11:20:00,80.6,72.7,30.06,East,99,1.0,12.0,77,0.00,,,0.00,Weather View 32 v70,2013-06-01 15:20:00,
2013-06-01 11:30:00,81.4,71.5,30.06,ENE,77,5.0,12.0,72,0.00,,,0.00,Weather View 32 v70,2013-06-01 15:30:00,
2013-06-01 11:40:00,82.0,72.0,30.06,ESE,108,4.0,12.0,72,0.00,,,0.00,Weather View 32 v70,2013-06-01 15:40:00,
2013-06-01 11:50:00,82.3,72.7,30.06,ESE,122,1.0,12.0,73,0.00,,,0.00,Weather View 32 v70,2013-06-01 15:50:00,
2013-06-01 11:56:00,82.3,72.7,30.06,ESE,122,1.0,12.0,73,0.00,,,0.00,Weather View 32 v70,2013-06-01 15:56:00,
2013-06-01 12:00:00,82.0,72.4,30.06,ESE,119,4.0,12.0,73,0.00,,,0.00,Weather View 32 v70,2013-06-01 16:00:00,
2013-06-01 12:10:00,82.7,71.0,30.06,NE,56,3.0,12.0,68,0.00,,,0.00,Weather View 32 v70,2013-06-01 16:10:00,
2013-06-01 12:20:00,82.4,72.0,30.06,ESE,105,2.0,12.0,71,0.00,,,0.00,Weather View 32 v70,2013-06-01 16:20:00,
2013-06-01 12:30:00,82.6,71.4,30.06,ENE,75,4.0,12.0,69,0.00,,,0.00,Weather View 32 v70,2013-06-01 16:30:00,
2013-06-01 12:40:00,83.1,72.3,30.05,NE,53,6.0,11.0,70,0.00,,,0.00,Weather View 32 v70,2013-06-01 16:40:00,
2013-06-01 12:50:00,82.9,71.2,30.05,ENE,62,5.0,11.0,68,0.00,,,0.00,Weather View 32 v70,2013-06-01 16:50:00,
2013-06-01 12:57:00,82.9,71.2,30.05,ENE,62,5.0,11.0,68,0.00,,,0.00,Weather View 32 v70,2013-06-01 16:57:00,
2013-06-01 13:00:00,83.2,71.5,30.05,ENE,67,5.0,11.0,68,0.00,,,0.00,Weather View 32 v70,2013-06-01 17:00:00,
2013-06-01 13:10:00,82.9,72.5,30.05,ESE,109,1.0,11.0,71,0.00,,,0.00,Weather View 32 v70,2013-06-01 17:10:00,
2013-06-01 13:20:00,83.5,71.8,30.05,East,81,9.0,11.0,68,0.00,,,0.00,Weather View 32 v70,2013-06-01 17:20:00,
2013-06-01 13:30:00,83.1,72.3,30.05,ENE,69,7.0,14.0,70,0.00,,,0.00,Weather View 32 v70,2013-06-01 17:30:00,
2013-06-01 13:40:00,82.8,71.1,30.04,East,89,6.0,14.0,68,0.00,,,0.00,Weather View 32 v70,2013-06-01 17:40:00,
2013-06-01 13:50:00,83.4,72.5,30.04,ENE,75,7.0,14.0,70,0.00,,,0.00,Weather View 32 v70,2013-06-01 17:50:00,
2013-06-01 13:57:00,83.4,72.5,30.04,ENE,75,7.0,14.0,70,0.00,,,0.00,Weather View 32 v70,2013-06-01 17:57:00,
2013-06-01 14:10:00,83.4,72.1,30.04,ENE,72,2.0,14.0,69,0.00,,,0.00,Weather View 32 v70,2013-06-01 18:10:00,
2013-06-01 14:20:00,83.1,72.3,30.04,East,80,8.0,14.0,70,0.00,,,0.00,Weather View 32 v70,2013-06-01 18:20:00,
2013-06-01 14:30:00,83.2,72.4,30.03,ENE,57,8.0,12.0,70,0.00,,,0.00,Weather View 32 v70,2013-06-01 18:30:00,
2013-06-01 14:40:00,83.2,72.4,30.03,East,83,8.0,14.0,70,0.00,,,0.00,Weather View 32 v70,2013-06-01 18:40:00,
2013-06-01 14:50:00,83.1,73.1,30.03,East,80,7.0,14.0,72,0.00,,,0.00,Weather View 32 v70,2013-06-01 18:50:00,
2013-06-01 14:58:00,83.1,73.1,30.03,East,80,7.0,14.0,72,0.00,,,0.00,Weather View 32 v70,2013-06-01 18:58:00,
2013-06-01 15:00:00,83.0,72.6,30.03,ENE,59,7.0,14.0,71,0.00,,,0.00,Weather View 32 v70,2013-06-01 19:00:00,
2013-06-01 15:10:00,83.1,73.1,30.02,ENE,60,11.0,14.0,72,0.00,,,0.00,Weather View 32 v70,2013-06-01 19:10:00,
2013-06-01 15:20:00,83.1,72.7,30.02,NE,51,3.0,14.0,71,0.00,,,0.00,Weather View 32 v70,2013-06-01 19:20:00,
2013-06-01 15:30:00,83.4,73.4,30.01,East,97,3.0,14.0,72,0.00,,,0.00,Weather View 32 v70,2013-06-01 19:30:00,
2013-06-01 15:40:00,83.4,73.8,30.01,ENE,68,5.0,15.0,73,0.00,,,0.00,Weather View 32 v70,2013-06-01 19:40:00,
2013-06-01 15:50:00,83.3,72.9,30.01,ENE,57,10.0,15.0,71,0.00,,,0.00,Weather View 32 v70,2013-06-01 19:50:00,
2013-06-01 15:59:00,83.3,72.9,30.01,ENE,57,10.0,15.0,71,0.00,,,0.00,Weather View 32 v70,2013-06-01 19:59:00,
2013-06-01 16:00:00,83.1,72.7,30.01,ENE,59,8.0,15.0,71,0.00,,,0.00,Weather View 32 v70,2013-06-01 20:00:00,
2013-06-01 16:10:00,82.6,72.6,30.01,NE,54,10.0,15.0,72,0.00,,,0.00,Weather View 32 v70,2013-06-01 20:10:00,
2013-06-01 16:20:00,82.6,72.6,30.01,ENE,61,10.0,15.0,72,0.00,,,0.00,Weather View 32 v70,2013-06-01 20:20:00,
2013-06-01 16:30:00,83.2,73.6,30.00,NNE,27,9.0,16.0,73,0.00,,,0.00,Weather View 32 v70,2013-06-01 20:30:00,
2013-06-01 16:40:00,83.0,73.4,30.00,ENE,59,11.0,16.0,73,0.00,,,0.00,Weather View 32 v70,2013-06-01 20:40:00,
2013-06-01 16:50:00,82.8,72.8,30.00,East,90,7.0,16.0,72,0.00,,,0.00,Weather View 32 v70,2013-06-01 20:50:00,
2013-06-01 16:59:00,82.8,72.8,30.00,East,90,7.0,16.0,72,0.00,,,0.00,Weather View 32 v70,2013-06-01 20:59:00,
2013-06-01 17:00:00,82.7,72.7,30.00,NE,56,6.0,16.0,72,0.00,,,0.00,Weather View 32 v70,2013-06-01 21:00:00,
2013-06-01 17:10:00,82.9,73.3,30.00,ENE,67,9.0,16.0,73,0.00,,,0.00,Weather View 32 v70,2013-06-01 21:10:00,
2013-06-01 17:20:00,82.1,72.5,30.00,ENE,66,8.0,16.0,73,0.00,,,0.00,Weather View 32 v70,2013-06-01 21:20:00,
2013-06-01 17:30:00,82.3,73.1,30.00,NE,56,8.0,16.0,74,0.00,,,0.00,Weather View 32 v70,2013-06-01 21:30:00,
2013-06-01 17:40:00,82.7,72.7,30.00,ENE,65,10.0,15.0,72,0.00,,,0.00,Weather View 32 v70,2013-06-01 21:40:00,
2013-06-01 17:50:00,81.8,73.1,30.00,East,82,9.0,15.0,75,0.00,,,0.00,Weather View 32 v70,2013-06-01 21:50:00,
2013-06-01 18:00:00,81.3,72.6,30.00,ENE,63,8.0,15.0,75,0.00,,,0.00,Weather View 32 v70,2013-06-01 22:00:00,
2013-06-01 18:10:00,81.2,72.9,30.00,NNE,21,9.0,15.0,76,0.00,,,0.00,Weather View 32 v70,2013-06-01 22:10:00,
2013-06-01 18:20:00,81.2,73.7,30.00,ENE,74,7.0,15.0,78,0.00,,,0.00,Weather View 32 v70,2013-06-01 22:20:00,
2013-06-01 18:30:00,80.7,73.2,30.00,East,84,5.0,15.0,78,0.00,,,0.00,Weather View 32 v70,2013-06-01 22:30:00,
2013-06-01 18:40:00,81.1,73.6,30.00,ESE,102,5.0,15.0,78,0.00,,,0.00,Weather View 32 v70,2013-06-01 22:40:00,
2013-06-01 18:50:00,80.6,72.7,30.00,ENE,71,5.0,13.0,77,0.00,,,0.00,Weather View 32 v70,2013-06-01 22:50:00,
2013-06-01 19:00:00,80.2,72.7,30.00,ENE,61,5.0,13.0,78,0.00,,,0.00,Weather View 32 v70,2013-06-01 23:00:00,
2013-06-01 19:10:00,80.2,72.7,30.00,East,84,7.0,14.0,78,0.00,,,0.00,Weather View 32 v70,2013-06-01 23:10:00,
2013-06-01 19:20:00,79.6,72.1,30.01,ENE,69,8.0,14.0,78,0.00,,,0.00,Weather View 32 v70,2013-06-01 23:20:00,
2013-06-01 19:30:00,79.7,73.7,30.01,East,82,5.0,14.0,82,0.00,,,0.00,Weather View 32 v70,2013-06-01 23:30:00,
2013-06-01 19:40:00,79.6,73.2,30.01,ESE,111,4.0,14.0,81,0.00,,,0.00,Weather View 32 v70,2013-06-01 23:40:00,
2013-06-01 19:50:00,79.3,73.7,30.01,ENE,78,8.0,14.0,83,0.00,,,0.00,Weather View 32 v70,2013-06-01 23:50:00,
2013-06-01 20:00:00,78.5,73.2,30.02,ENE,63,8.0,14.0,84,0.00,,,0.00,Weather View 32 v70,2013-06-02 00:00:00,
2013-06-01 20:10:00,78.0,72.7,30.02,ENE,65,8.0,15.0,84,0.00,,,0.00,Weather View 32 v70,2013-06-02 00:10:00,
2013-06-01 20:20:00,77.5,72.3,30.01,East,93,6.0,15.0,84,0.00,,,0.00,Weather View 32 v70,2013-06-02 00:20:00,
2013-06-01 20:30:00,77.2,72.7,30.02,East,89,2.0,15.0,86,0.00,,,0.00,Weather View 32 v70,2013-06-02 00:30:00,
2013-06-01 20:40:00,76.9,72.4,30.02,ENE,74,7.0,15.0,86,0.00,,,0.00,Weather View 32 v70,2013-06-02 00:40:00,
2013-06-01 20:50:00,76.7,71.8,30.02,ENE,61,7.0,15.0,85,0.00,,,0.00,Weather View 32 v70,2013-06-02 00:50:00,
2013-06-01 21:00:00,76.4,72.2,30.03,ENE,72,4.0,15.0,87,0.00,,,0.00,Weather View 32 v70,2013-06-02 01:00:00,
2013-06-01 21:01:00,76.4,72.2,30.03,ENE,72,4.0,15.0,87,0.00,,,0.00,Weather View 32 v70,2013-06-02 01:01:00,
2013-06-01 21:10:00,76.2,72.0,30.03,ENE,59,5.0,13.0,87,0.00,,,0.00,Weather View 32 v70,2013-06-02 01:10:00,
2013-06-01 21:20:00,76.0,72.2,30.03,ENE,61,8.0,13.0,88,0.00,,,0.00,Weather View 32 v70,2013-06-02 01:20:00,
2013-06-01 21:30:00,76.1,72.3,30.04,ESE,119,2.0,13.0,88,0.00,,,0.00,Weather View 32 v70,2013-06-02 01:30:00,
2013-06-01 21:40:00,76.1,72.6,30.04,ENE,73,5.0,13.0,89,0.00,,,0.00,Weather View 32 v70,2013-06-02 01:40:00,
2013-06-01 21:50:00,75.7,72.2,30.05,East,82,3.0,13.0,89,0.00,,,0.00,Weather View 32 v70,2013-06-02 01:50:00,
2013-06-01 22:00:00,75.5,72.7,30.05,NE,42,3.0,13.0,91,0.01,,,0.01,Weather View 32 v70,2013-06-02 02:00:00,
2013-06-01 22:02:00,75.5,72.7,30.05,NE,42,3.0,13.0,91,0.01,,,0.01,Weather View 32 v70,2013-06-02 02:02:00,
2013-06-01 22:10:00,75.1,72.6,30.05,NNE,30,8.0,13.0,92,0.01,,,0.01,Weather View 32 v70,2013-06-02 02:10:00,
2013-06-01 22:20:00,74.8,72.3,30.05,NE,50,4.0,12.0,92,0.01,,,0.01,Weather View 32 v70,2013-06-02 02:20:00,
2013-06-01 22:30:00,74.9,72.7,30.05,ENE,62,3.0,12.0,93,0.01,,,0.01,Weather View 32 v70,2013-06-02 02:30:00,
2013-06-01 22:40:00,74.8,72.6,30.05,ENE,61,0.0,12.0,93,0.01,,,0.01,Weather View 32 v70,2013-06-02 02:40:00,
2013-06-01 22:50:00,74.8,72.6,30.05,ENE,57,2.0,10.0,93,0.01,,,0.01,Weather View 32 v70,2013-06-02 02:50:00,
2013-06-01 23:00:00,74.6,72.8,30.05,NNE,32,2.0,10.0,94,0.00,,,0.01,Weather View 32 v70,2013-06-02 03:00:00,
2013-06-01 23:03:00,74.6,72.8,30.05,NNE,32,2.0,10.0,94,0.00,,,0.01,Weather View 32 v70,2013-06-02 03:03:00,
2013-06-01 23:10:00,74.5,72.7,30.05,NNE,33,0.0,10.0,94,0.00,,,0.01,Weather View 32 v70,2013-06-02 03:10:00,
2013-06-01 23:20:00,74.4,72.6,30.05,NE,48,2.0,10.0,94,0.00,,,0.01,Weather View 32 v70,2013-06-02 03:20:00,
2013-06-01 23:30:00,74.4,72.6,30.04,NNE,12,1.0,7.0,94,0.00,,,0.01,Weather View 32 v70,2013-06-02 03:30:00,
2013-06-01 23:40:00,74.4,72.9,30.04,NNE,28,4.0,5.0,95,0.00,,,0.01,Weather View 32 v70,2013-06-02 03:40:00,
2013-06-01 23:50:00,74.3,72.8,30.04,NE,38,2.0,5.0,95,0.00,,,0.01,Weather View 32 v70,2013-06-02 03:50:00,